Tempos de volta de RENTAL PROVA 2 - 18:30
KARTODROMO INTERNACIONAL GRANJA VIANA a funcionar KGV RACE TRACKS CIRCUITO - 105
Tempos de volta de RENTAL - PROVA 2 - 18:30


Hora do dia Volta Volta do Líder Volta Tm Velocidade
008 - SAVIOLO FERNANDO - RENTAL
18:44:30.524 1 1 44.167 59,501
18:45:14.947 2 2 44.423 59,159
18:45:59.233 3 3 44.286 59,342
18:46:43.162 4 4 43.929 59,824
18:47:27.142 5 5 43.980 59,754
18:48:11.001 6 6 43.859 59,919
18:48:54.931 7 7 43.930 59,822
18:49:38.975 8 8 44.044 59,668
18:50:22.861 9 9 43.886 59,882
18:51:07.456 10 10 44.595 58,930
18:51:51.240 11 11 43.784 60,022
18:52:35.538 12 12 44.298 59,325
18:53:19.396 13 13 43.858 59,921
18:54:03.325 14 14 43.929 59,824
18:54:47.514 15 15 44.189 59,472
18:55:31.742 16 16 44.228 59,419
18:56:16.270 17 17 44.528 59,019
18:57:00.400 18 18 44.130 59,551
18:57:44.219 19 19 43.819 59,974
18:58:28.734 20 20 44.515 59,036
015 - VALDEMIR SOUZA - RENTAL
18:44:31.138 1 1 44.171 59,496
18:45:15.925 2 2 44.787 58,678
18:45:59.962 3 3 44.037 59,677
18:46:43.735 4 4 43.773 60,037
18:47:28.146 5 5 44.411 59,175
18:48:12.575 6 6 44.429 59,151
18:48:57.090 7 7 44.515 59,036
18:49:42.696 8 8 45.606 57,624
18:50:26.885 9 9 44.189 59,472
18:51:10.760 10 10 43.875 59,897
18:51:55.212 11 11 44.452 59,120
18:52:39.728 12 12 44.516 59,035
18:53:23.967 13 13 44.239 59,405
18:54:07.900 14 14 43.933 59,818
18:54:52.099 15 15 44.199 59,458
18:55:36.664 16 16 44.565 58,970
18:56:20.981 17 17 44.317 59,300
18:57:05.205 18 18 44.224 59,425
18:57:49.710 19 19 44.505 59,050
18:58:34.181 20 20 44.471 59,095
019 - JOSUEL HORA ROSALINO - RENTAL
18:44:33.819 1 1 45.491 57,770
18:45:18.537 2 2 44.718 58,768
18:46:03.099 3 3 44.562 58,974
18:46:47.537 4 4 44.438 59,139
18:47:32.404 5 5 44.867 58,573
18:48:18.168 6 6 45.764 57,425
18:49:03.379 7 7 45.211 58,127
18:49:47.958 8 8 44.579 58,952
18:50:32.818 9 9 44.860 58,582
18:51:17.313 10 10 44.495 59,063
18:52:04.286 11 11 46.973 55,947
18:52:48.448 12 12 44.162 59,508
18:53:32.852 13 13 44.404 59,184
18:54:17.472 14 14 44.620 58,897
18:55:01.876 15 15 44.404 59,184
18:55:46.828 16 16 44.952 58,462
18:56:31.532 17 17 44.704 58,787
18:57:16.135 18 18 44.603 58,920
18:58:00.611 19 19 44.476 59,088
18:58:45.584 20 20 44.973 58,435
035 - EDUARDO NASCIMENTO LEITE - RENTAL
18:44:37.137 1 1 46.179 56,909
18:45:21.915 2 2 44.778 58,690
18:46:06.484 3 3 44.569 58,965
18:46:50.948 4 4 44.464 59,104
18:47:36.001 5 5 45.053 58,331
18:48:21.176 6 6 45.175 58,174
18:49:05.540 7 7 44.364 59,237
18:49:49.918 8 8 44.378 59,219
18:50:34.759 9 9 44.841 58,607
18:51:19.250 10 10 44.491 59,068
18:52:05.257 11 11 46.007 57,122
18:52:49.876 12 12 44.619 58,899
18:53:34.210 13 13 44.334 59,277
18:54:18.642 14 14 44.432 59,147
18:55:02.914 15 15 44.272 59,360
18:55:47.515 16 16 44.601 58,922
18:56:32.181 17 17 44.666 58,837
18:57:17.448 18 18 45.267 58,056
18:58:02.231 19 19 44.783 58,683
18:58:46.920 20 20 44.689 58,806
016 - HENRIQUE AUGUSTO ARAUJO - RENTAL
18:44:32.032 1 1 44.532 59,014
18:45:16.598 2 2 44.566 58,969
18:46:00.765 3 3 44.167 59,501
18:46:44.550 4 4 43.785 60,021
18:47:28.690 5 5 44.140 59,538
18:48:13.326 6 6 44.636 58,876
18:49:00.807 7 7 47.481 55,348
18:49:46.051 8 8 45.244 58,085
18:50:32.082 9 9 46.031 57,092
18:51:16.612 10 10 44.530 59,016
18:52:05.391 11 11 48.779 53,876
18:52:50.589 12 12 45.198 58,144
18:53:37.586 13 13 46.997 55,918
18:54:23.714 14 14 46.128 56,972
18:55:08.257 15 15 44.543 58,999
18:55:52.724 16 16 44.467 59,100
18:56:37.003 17 17 44.279 59,351
18:57:22.036 18 18 45.033 58,357
18:58:07.680 19 19 45.644 57,576
18:58:57.922 20 20 50.242 52,307
006 - FERNANDO ARAUJO SANTOS - RENTAL
18:44:33.338 1 1 45.400 57,885
18:45:18.223 2 2 44.885 58,550
18:46:02.621 3 3 44.398 59,192
18:46:47.410 4 4 44.789 58,675
18:47:32.863 5 5 45.453 57,818
18:48:17.650 6 6 44.787 58,678
18:49:02.613 7 7 44.963 58,448
18:49:47.954 8 8 45.341 57,961
18:50:32.841 9 9 44.887 58,547
18:51:17.076 10 10 44.235 59,410
18:52:08.743 11 11 51.667 50,864
18:52:54.123 12 12 45.380 57,911
18:53:38.851 13 13 44.728 58,755
18:54:23.210 14 14 44.359 59,244
18:55:07.813 15 15 44.603 58,920
18:55:52.321 16 16 44.508 59,046
18:56:36.720 17 17 44.399 59,191
18:57:22.019 18 18 45.299 58,015
18:58:08.081 19 19 46.062 57,054
18:59:01.895 20 20 53.814 48,835
017 - MILTON VIEIRA RED KILLER - RENTAL
18:44:38.121 1 1 47.357 55,493
18:45:24.151 2 2 46.030 57,093
18:46:09.917 3 3 45.766 57,423
18:46:55.281 4 4 45.364 57,931
18:47:40.566 5 5 45.285 58,032
18:48:25.819 6 6 45.253 58,073
18:49:10.646 7 7 44.827 58,625
18:49:55.690 8 8 45.044 58,343
18:50:40.579 9 9 44.889 58,544
18:51:25.571 10 10 44.992 58,410
18:52:10.178 11 11 44.607 58,915
18:52:55.054 12 12 44.876 58,561
18:53:39.571 13 13 44.517 59,034
18:54:24.643 14 14 45.072 58,307
18:55:09.871 15 15 45.228 58,106
18:55:55.147 16 16 45.276 58,044
18:56:40.623 17 17 45.476 57,789
18:57:26.108 18 18 45.485 57,777
18:58:11.852 19 19 45.744 57,450
18:59:06.000 20 20 54.148 48,534
028 - RODRIGO BATISTA RED KILLER - RENTAL
18:44:38.528 1 1 47.947 54,811
18:45:24.688 2 2 46.160 56,932
18:46:10.582 3 3 45.894 57,262
18:46:56.013 4 4 45.431 57,846
18:47:41.796 5 5 45.783 57,401
18:48:27.260 6 6 45.464 57,804
18:49:12.439 7 7 45.179 58,169
18:49:57.917 8 8 45.478 57,786
18:50:43.076 9 9 45.159 58,194
18:51:28.211 10 10 45.135 58,225
18:52:13.777 11 11 45.566 57,675
18:52:59.850 12 12 46.073 57,040
18:53:46.018 13 13 46.168 56,923
18:54:32.583 14 14 46.565 56,437
18:55:18.722 15 15 46.139 56,958
18:56:04.197 16 16 45.475 57,790
18:56:50.416 17 17 46.219 56,860
18:57:36.561 18 18 46.145 56,951
18:58:22.322 19 19 45.761 57,429
18:59:08.082 20 20 45.760 57,430
001 - FABIO VINICIUS DIAS DA SILVA - RENTAL
18:44:38.521 1 1 47.628 55,178
18:45:24.935 2 2 46.414 56,621
18:46:12.224 3 3 47.289 55,573
18:46:57.125 4 4 44.901 58,529
18:47:43.205 5 5 46.080 57,031
18:48:29.622 6 6 46.417 56,617
18:49:15.039 7 7 45.417 57,864
18:50:02.283 8 8 47.244 55,626
18:50:48.076 9 9 45.793 57,389
18:51:33.710 10 10 45.634 57,589
18:52:19.069 11 11 45.359 57,938
18:53:04.286 12 12 45.217 58,120
18:53:50.762 13 13 46.476 56,545
18:54:36.060 14 14 45.298 58,016
18:55:21.616 15 15 45.556 57,687
18:56:06.859 16 16 45.243 58,086
18:56:51.959 17 17 45.100 58,271
18:57:37.038 18 18 45.079 58,298
18:58:23.664 19 19 46.626 56,363
18:59:08.456 20 20 44.792 58,671
038 - BRUNO BATISTA RED KILLER - RENTAL
18:44:39.328 1 1 49.020 53,611
18:45:26.065 2 2 46.737 56,230
18:46:11.271 3 3 45.206 58,134
18:46:56.464 4 4 45.193 58,151
18:47:43.234 5 5 46.770 56,190
18:48:29.380 6 6 46.146 56,950
18:49:14.386 7 7 45.006 58,392
18:50:03.203 8 8 48.817 53,834
18:50:48.679 9 9 45.476 57,789
18:51:34.646 10 10 45.967 57,171
18:52:19.371 11 11 44.725 58,759
18:53:09.225 12 12 49.854 52,714
18:53:54.346 13 13 45.121 58,243
18:54:39.923 14 14 45.577 57,661
18:55:25.536 15 15 45.613 57,615
18:56:10.198 16 16 44.662 58,842
18:56:54.940 17 17 44.742 58,737
18:57:41.699 18 18 46.759 56,203
18:58:26.995 19 19 45.296 58,018
18:59:13.024 20 20 46.029 57,094
021 - ARTHUR MARTINS - RENTAL
18:44:36.643 1 1 46.436 56,594
18:45:24.859 2 2 48.216 54,505
18:46:11.011 3 3 46.152 56,942
18:46:56.340 4 4 45.329 57,976
18:47:42.846 5 5 46.506 56,509
18:48:28.177 6 6 45.331 57,974
18:49:13.535 7 7 45.358 57,939
18:50:02.262 8 8 48.727 53,933
18:50:47.704 9 9 45.442 57,832
18:51:33.314 10 10 45.610 57,619
18:52:18.899 11 11 45.585 57,651
18:53:03.851 12 12 44.952 58,462
18:53:49.936 13 13 46.085 57,025
18:54:35.980 14 14 46.044 57,076
18:55:21.453 15 15 45.473 57,793
18:56:06.718 16 16 45.265 58,058
18:56:51.809 17 17 45.091 58,282
18:57:36.763 18 18 44.954 58,460
18:58:26.622 19 19 49.859 52,709
18:59:13.060 20 20 46.438 56,592
032 - LEONARDO MOREIRA - RENTAL
18:44:34.350 1 1 45.567 57,673
18:45:19.888 2 2 45.538 57,710
18:46:05.506 3 3 45.618 57,609
18:46:50.377 4 4 44.871 58,568
18:47:35.410 5 5 45.033 58,357
18:48:21.314 6 6 45.904 57,250
18:49:06.325 7 7 45.011 58,386
18:49:51.257 8 8 44.932 58,488
18:50:37.229 9 9 45.972 57,165
18:51:22.689 10 10 45.460 57,809
18:52:08.546 11 11 45.857 57,309
18:52:53.688 12 12 45.142 58,216
18:53:38.896 13 13 45.208 58,131
18:54:24.208 14 14 45.312 57,998
18:55:09.622 15 15 45.414 57,868
18:55:54.593 16 16 44.971 58,438
18:56:40.044 17 17 45.451 57,821
18:57:25.562 18 18 45.518 57,735
18:58:11.942 19 19 46.380 56,662
004 - ALLAN SANTOS DE ANDRADE - RENTAL
18:44:39.015 1 1 47.412 55,429
18:45:25.799 2 2 46.784 56,173
18:46:13.019 3 3 47.220 55,654
18:46:58.464 4 4 45.445 57,828
18:47:43.883 5 5 45.419 57,861
18:48:30.660 6 6 46.777 56,181
18:49:15.908 7 7 45.248 58,080
18:50:01.637 8 8 45.729 57,469
18:50:47.105 9 9 45.468 57,799
18:51:32.998 10 10 45.893 57,264
18:52:18.063 11 11 45.065 58,316
18:53:03.397 12 12 45.334 57,970
18:53:52.182 13 13 48.785 53,869
18:54:39.367 14 14 47.185 55,696
18:55:24.482 15 15 45.115 58,251
18:56:09.520 16 16 45.038 58,351
18:56:54.698 17 17 45.178 58,170
18:57:44.091 18 18 49.393 53,206
18:58:30.050 19 20 45.959 57,181
018 - GLAUBER AVLES DA CRUZ - RENTAL
18:44:39.785 1 1 47.614 55,194
18:45:26.998 2 2 47.213 55,663
18:46:13.661 3 3 46.663 56,319
18:47:00.451 4 4 46.790 56,166
18:47:46.303 5 5 45.852 57,315
18:48:32.723 6 6 46.420 56,614
18:49:18.703 7 7 45.980 57,155
18:50:05.126 8 8 46.423 56,610
18:50:52.985 9 9 47.859 54,911
18:51:41.908 10 10 48.923 53,717
18:52:29.572 11 11 47.664 55,136
18:53:16.858 12 12 47.286 55,577
18:54:04.069 13 14 47.211 55,665
18:54:50.894 14 15 46.825 56,124
18:55:41.332 15 16 50.438 52,104
18:56:28.923 16 17 47.591 55,221
18:57:17.174 17 18 48.251 54,465
18:58:05.084 18 19 47.910 54,853
18:58:52.301 19 20 47.217 55,658
003 - WILLY AUGUSTO FERREIRO - RENTAL
18:44:50.050 1 1 59.717 44,008
18:46:17.503 2 3 1:27.453 30,050
18:47:09.445 3 4 51.942 50,595
18:47:54.504 4 5 45.059 58,324
18:48:39.230 5 6 44.726 58,758
18:49:23.679 6 7 44.449 59,124
18:50:08.218 7 8 44.539 59,004
18:50:53.517 8 9 45.299 58,015
18:51:39.697 9 10 46.180 56,908
18:52:24.871 10 11 45.174 58,175
18:53:09.778 11 12 44.907 58,521
18:53:54.595 12 13 44.817 58,638
18:54:40.787 13 14 46.192 56,893
18:55:25.676 14 15 44.889 58,544
18:56:11.067 15 16 45.391 57,897
18:56:55.313 16 17 44.246 59,395
18:57:40.833 17 18 45.520 57,733
18:58:25.282 18 19 44.449 59,124
18:59:09.688 19 20 44.406 59,181
033 - CRISTIAN PETICOV - RENTAL
18:44:30.493 1 1 43.910 59,850
18:45:30.180 2 2 59.687 44,030
18:47:09.552 3 4 1:39.372 26,446
18:47:54.635 4 5 45.083 58,292
18:48:39.373 5 6 44.738 58,742
18:49:23.786 6 7 44.413 59,172
18:50:08.359 7 8 44.573 58,959
18:50:53.376 8 9 45.017 58,378
18:51:39.449 9 10 46.073 57,040
18:52:24.970 10 11 45.521 57,732
18:53:10.291 11 12 45.321 57,986
18:53:54.702 12 13 44.411 59,175
18:54:40.898 13 14 46.196 56,888
18:55:25.888 14 15 44.990 58,413
18:56:10.691 15 16 44.803 58,657
18:56:55.460 16 17 44.769 58,701
18:57:41.337 17 18 45.877 57,284
18:58:25.426 18 19 44.089 59,607
18:59:09.818 19 20 44.392 59,200
030 - DOUGLAS MARQUES - RENTAL
18:44:43.730 1 1 49.711 52,866
18:45:43.305 2 2 59.575 44,112
18:46:32.515 3 3 49.210 53,404
18:47:20.738 4 4 48.223 54,497
18:48:10.400 5 5 49.662 52,918
18:48:58.896 6 7 48.496 54,190
18:49:47.809 7 8 48.913 53,728
18:50:37.862 8 9 50.053 52,504
18:51:25.690 9 10 47.828 54,947
18:52:14.721 10 11 49.031 53,599
18:53:03.093 11 12 48.372 54,329
18:53:52.116 12 13 49.023 53,607
18:54:40.701 13 14 48.585 54,091
18:55:28.803 14 15 48.102 54,634
18:56:16.503 15 17 47.700 55,094
18:57:04.420 16 18 47.917 54,845
18:57:54.194 17 19 49.774 52,799
18:58:43.141 18 20 48.947 53,691
039 - DIEGO FERNANDES BOLDRIN - RENTAL
18:44:42.331 1 1 49.361 53,240
18:45:29.820 2 2 47.489 55,339
18:46:17.151 3 3 47.331 55,524
18:47:04.739 4 4 47.588 55,224
18:47:53.046 5 5 48.307 54,402
18:48:41.918 6 6 48.872 53,773
18:49:29.753 7 7 47.835 54,939
18:50:18.628 8 8 48.875 53,770
18:51:11.203 9 10 52.575 49,986
18:52:13.737 10 11 1:02.534 42,025
18:53:01.766 11 12 48.029 54,717
18:53:50.489 12 13 48.723 53,938
18:54:39.221 13 14 48.732 53,928
18:55:30.135 14 15 50.914 51,616
18:56:19.239 15 17 49.104 53,519
18:57:07.882 16 18 48.643 54,026
18:57:56.957 17 19 49.075 53,551
18:58:46.318 18 20 49.361 53,240
007 - WALISSON SANTOS ALVES - RENTAL
18:45:11.086 1 1 1:02.480 42,061
18:46:18.602 2 3 1:07.516 38,924
18:47:19.177 3 4 1:00.575 43,384
18:48:20.624 4 6 1:01.447 42,769
18:49:42.650 5 8 1:22.026 32,039
18:50:43.486 6 9 1:00.836 43,198
18:51:42.263 7 10 58.777 44,711
18:52:41.543 8 12 59.280 44,332
18:53:42.529 9 13 1:00.986 43,092
18:54:46.016 10 14 1:03.487 41,394
18:55:44.971 11 16 58.955 44,576
18:56:44.866 12 17 59.895 43,877
18:57:44.431 13 19 59.565 44,120
18:58:45.210 14 20 1:00.779 43,239
020 - EDUARDO BOLDRIN DINIZ - RENTAL
18:45:21.545 1 2 1:25.116 30,876
18:46:29.035 2 3 1:07.490 38,939
18:47:41.473 3 5 1:12.438 36,279
18:48:54.605 4 6 1:13.132 35,935
18:50:03.521 5 8 1:08.916 38,133
18:51:09.250 6 10 1:05.729 39,982
18:52:15.967 7 11 1:06.717 39,390
18:53:32.520 8 13 1:16.553 34,329
18:54:48.867 9 15 1:16.347 34,422
18:56:11.881 10 16 1:23.014 31,657
18:57:34.695 11 18 1:22.814 31,734
18:58:54.079 12 20 1:19.384 33,105
Gerada em 12/08/2019 19:01